createdAt,value
2017-09-12T00:02:04.061Z,15.40
2017-09-12T00:04:31.554Z,15.40
2017-09-12T00:06:59.827Z,15.30
2017-09-12T00:09:27.317Z,15.30
2017-09-12T00:11:55.582Z,15.30
2017-09-12T00:14:23.052Z,15.20
2017-09-12T00:16:50.532Z,15.20
2017-09-12T00:19:18.807Z,15.10
2017-09-12T00:21:47.028Z,15.00
2017-09-12T00:24:14.516Z,15.00
2017-09-12T00:26:42.022Z,15.00
2017-09-12T00:29:10.285Z,14.90
2017-09-12T00:31:38.539Z,14.80
2017-09-12T00:34:06.395Z,14.80
2017-09-12T00:36:34.640Z,14.90
2017-09-12T00:39:02.156Z,14.90
2017-09-12T00:41:30.400Z,15.00
2017-09-12T00:43:57.868Z,15.00
2017-09-12T00:46:25.432Z,15.00
2017-09-12T00:48:52.920Z,14.90
2017-09-12T00:51:20.432Z,15.00
2017-09-12T00:53:47.911Z,15.00
2017-09-12T00:56:15.396Z,15.00
2017-09-12T00:58:43.094Z,14.90
2017-09-12T01:01:11.383Z,14.90
2017-09-12T01:03:38.868Z,14.90
2017-09-12T01:06:06.585Z,14.90
2017-09-12T01:08:34.079Z,14.90
2017-09-12T01:11:02.641Z,15.00
2017-09-12T01:13:30.924Z,14.90
2017-09-12T01:15:58.401Z,15.00
2017-09-12T01:18:25.970Z,15.00
2017-09-12T01:20:54.238Z,15.00
2017-09-12T01:23:21.750Z,15.00
2017-09-12T01:25:49.984Z,15.10
2017-09-12T01:28:17.612Z,15.00
2017-09-12T01:30:45.257Z,15.10
2017-09-12T01:33:12.737Z,15.10
2017-09-12T01:35:40.235Z,15.10
2017-09-12T01:38:08.752Z,15.10
2017-09-12T01:40:36.237Z,15.10
2017-09-12T01:43:04.503Z,15.10
2017-09-12T01:45:32.115Z,15.10
2017-09-12T01:47:59.696Z,15.10
2017-09-12T01:50:27.151Z,15.10
2017-09-12T01:52:54.678Z,15.10
2017-09-12T01:55:22.166Z,15.10
2017-09-12T01:57:50.425Z,15.10
2017-09-12T02:00:17.907Z,15.10
2017-09-12T02:02:46.142Z,15.10
2017-09-12T02:05:13.627Z,15.10
2017-09-12T02:07:41.121Z,15.10
2017-09-12T02:10:09.497Z,15.20
2017-09-12T02:12:36.967Z,15.10
2017-09-12T02:15:04.451Z,15.20
2017-09-12T02:17:32.051Z,15.20
2017-09-12T02:19:59.537Z,15.20
2017-09-12T02:22:27.020Z,15.20
2017-09-12T02:24:54.513Z,15.10
2017-09-12T02:27:22.005Z,15.10
2017-09-12T02:29:50.264Z,15.20
2017-09-12T02:32:17.748Z,15.10
2017-09-12T02:34:45.342Z,15.20
2017-09-12T02:37:12.872Z,15.20
2017-09-12T02:39:41.362Z,15.20
2017-09-12T02:42:09.659Z,15.20
2017-09-12T02:44:37.133Z,15.20
2017-09-12T02:47:04.642Z,15.20
2017-09-12T02:49:32.885Z,15.20
2017-09-12T02:52:01.257Z,15.20
2017-09-12T02:54:29.504Z,15.20
2017-09-12T02:56:56.989Z,15.20
2017-09-12T02:59:24.524Z,15.20
2017-09-12T03:01:52.761Z,15.30
2017-09-12T03:04:20.271Z,15.30
2017-09-12T03:06:47.777Z,15.30
2017-09-12T03:09:15.263Z,15.30
2017-09-12T03:11:43.498Z,15.30
2017-09-12T03:14:10.979Z,15.30
2017-09-12T03:16:39.251Z,15.30
2017-09-12T03:19:08.877Z,15.30
2017-09-12T03:21:37.141Z,15.30
2017-09-12T03:24:04.618Z,15.30
2017-09-12T03:26:32.877Z,15.30
2017-09-12T03:29:00.353Z,15.40
2017-09-12T03:31:28.617Z,15.30
2017-09-12T03:33:57.629Z,15.30
2017-09-12T03:36:25.165Z,15.30
2017-09-12T03:38:53.403Z,15.30
2017-09-12T03:41:20.909Z,15.30
2017-09-12T03:43:48.393Z,15.30
2017-09-12T03:46:15.880Z,15.30
2017-09-12T03:48:43.363Z,15.30
2017-09-12T03:51:11.656Z,15.30
2017-09-12T03:53:39.146Z,15.30
2017-09-12T03:56:06.739Z,15.30
2017-09-12T03:58:34.993Z,15.30
2017-09-12T04:01:02.505Z,15.30
2017-09-12T04:03:30.819Z,15.30
2017-09-12T04:05:58.309Z,15.20
2017-09-12T04:08:26.596Z,15.30
2017-09-12T04:10:55.644Z,15.20
2017-09-12T04:13:23.884Z,15.30
2017-09-12T04:15:52.427Z,15.20
2017-09-12T04:18:19.926Z,15.30
2017-09-12T04:20:48.198Z,15.30
2017-09-12T04:23:15.684Z,15.30
2017-09-12T04:25:43.186Z,15.00
2017-09-12T04:28:11.475Z,15.30
2017-09-12T04:30:38.990Z,15.30
2017-09-12T04:33:07.427Z,15.30
2017-09-12T04:35:34.888Z,15.30
2017-09-12T04:38:03.130Z,15.30
2017-09-12T04:40:30.630Z,15.20
2017-09-12T04:42:58.104Z,15.30
2017-09-12T04:45:25.665Z,15.30
2017-09-12T04:47:53.171Z,15.20
2017-09-12T04:50:20.667Z,15.20
2017-09-12T04:52:48.160Z,15.30
2017-09-12T04:55:15.674Z,15.20
2017-09-12T04:57:43.953Z,15.20
2017-09-12T05:00:12.218Z,15.20
2017-09-12T05:02:39.688Z,15.20
2017-09-12T05:05:07.365Z,15.20
2017-09-12T05:07:34.881Z,15.30
2017-09-12T05:10:02.410Z,15.30
2017-09-12T05:12:30.730Z,15.40
2017-09-12T05:14:58.229Z,15.40
2017-09-12T05:17:25.847Z,15.40
2017-09-12T05:19:53.363Z,15.40
2017-09-12T05:22:21.601Z,15.50
2017-09-12T05:24:50.132Z,15.50
2017-09-12T05:27:17.629Z,15.50
2017-09-12T05:29:45.286Z,15.50
2017-09-12T05:32:12.868Z,15.50
2017-09-12T05:34:40.403Z,15.50
2017-09-12T05:37:08.632Z,15.50
2017-09-12T05:39:36.112Z,15.50
2017-09-12T05:42:03.579Z,15.50
2017-09-12T05:44:31.063Z,15.50
2017-09-12T05:46:58.549Z,15.50
2017-09-12T05:49:26.029Z,15.50
2017-09-12T05:51:53.515Z,15.50
2017-09-12T05:54:21.124Z,15.50
2017-09-12T05:56:48.593Z,15.60
2017-09-12T05:59:16.200Z,15.30
2017-09-12T06:01:43.723Z,15.60
2017-09-12T06:04:11.965Z,15.70
2017-09-12T06:06:39.572Z,15.70
2017-09-12T06:09:07.160Z,15.70
2017-09-12T06:11:34.665Z,15.70
2017-09-12T06:14:02.163Z,15.70
2017-09-12T06:16:30.449Z,15.70
2017-09-12T06:18:57.944Z,15.70
2017-09-12T06:21:25.627Z,15.70
2017-09-12T06:23:53.164Z,15.70
2017-09-12T06:26:20.685Z,15.70
2017-09-12T06:28:48.211Z,15.70
2017-09-12T06:31:15.904Z,15.70
2017-09-12T06:33:43.457Z,15.60
2017-09-12T06:36:11.016Z,15.60
2017-09-12T06:38:38.625Z,15.40
2017-09-12T06:41:06.372Z,15.60
2017-09-12T06:43:33.844Z,15.60
2017-09-12T06:46:01.516Z,15.50
2017-09-12T06:48:29.024Z,15.40
2017-09-12T06:50:56.524Z,15.40
2017-09-12T06:53:24.031Z,15.40
2017-09-12T06:55:52.437Z,15.40
2017-09-12T06:58:19.943Z,15.30
2017-09-12T07:00:47.497Z,15.30
2017-09-12T07:03:15.762Z,15.40
2017-09-12T07:05:43.223Z,15.40
2017-09-12T07:08:10.759Z,15.40
2017-09-12T07:10:38.233Z,15.40
2017-09-12T07:13:05.846Z,15.50
2017-09-12T07:15:34.232Z,15.30
2017-09-12T07:18:01.821Z,15.30
2017-09-12T07:20:29.319Z,15.30
2017-09-12T07:22:57.591Z,15.30
2017-09-12T07:25:25.155Z,15.30
2017-09-12T07:27:53.646Z,15.30
2017-09-12T07:30:21.191Z,15.30
2017-09-12T07:32:49.465Z,15.30
2017-09-12T07:35:16.942Z,15.30
2017-09-12T07:37:44.436Z,15.40
2017-09-12T07:40:11.939Z,15.40
2017-09-12T07:42:39.446Z,15.30
2017-09-12T07:45:06.949Z,15.30
2017-09-12T07:47:34.439Z,15.30
2017-09-12T07:50:01.917Z,15.30
2017-09-12T07:52:29.422Z,15.40
2017-09-12T07:54:56.900Z,15.50
2017-09-12T07:57:24.430Z,15.40
2017-09-12T07:59:52.057Z,15.40
2017-09-12T08:02:19.533Z,15.50
2017-09-12T08:04:47.057Z,15.60
2017-09-12T08:07:14.595Z,15.50
2017-09-12T08:09:43.035Z,15.50
2017-09-12T08:12:10.535Z,15.60
2017-09-12T08:14:38.021Z,15.50
2017-09-12T08:17:05.551Z,15.50
2017-09-12T08:19:33.230Z,15.60
2017-09-12T08:22:00.771Z,15.30
2017-09-12T08:24:28.258Z,15.50
2017-09-12T08:26:55.756Z,15.50
2017-09-12T08:29:23.260Z,15.40
2017-09-12T08:31:51.520Z,15.30
2017-09-12T08:34:18.999Z,15.00
2017-09-12T08:36:46.595Z,15.30
2017-09-12T08:39:14.061Z,15.30
2017-09-12T08:41:41.550Z,15.30
2017-09-12T08:44:09.225Z,15.30
2017-09-12T08:46:36.764Z,15.40
2017-09-12T08:49:04.269Z,15.40
2017-09-12T08:51:31.862Z,15.40
2017-09-12T08:53:59.390Z,15.40
2017-09-12T08:56:26.887Z,15.50
2017-09-12T08:58:55.275Z,15.90
2017-09-12T09:01:23.556Z,15.80
2017-09-12T09:03:51.101Z,15.80
2017-09-12T09:06:18.614Z,16.00
2017-09-12T09:08:46.181Z,16.10
2017-09-12T09:11:13.774Z,16.10
2017-09-12T09:13:41.273Z,16.20
2017-09-12T09:16:08.749Z,16.20
2017-09-12T09:18:36.234Z,16.30
2017-09-12T09:21:03.714Z,16.40
2017-09-12T09:23:31.200Z,16.10
2017-09-12T09:25:58.676Z,16.40
2017-09-12T09:28:26.232Z,16.40
2017-09-12T09:30:54.488Z,16.40
2017-09-12T09:33:21.991Z,16.40
2017-09-12T09:35:49.586Z,16.40
2017-09-12T09:38:17.848Z,16.40
2017-09-12T09:40:45.335Z,16.40
2017-09-12T09:43:12.927Z,16.50
2017-09-12T09:45:40.410Z,16.60
2017-09-12T09:48:07.968Z,16.60
2017-09-12T09:50:35.757Z,16.70
2017-09-12T09:53:03.273Z,16.80
2017-09-12T09:55:30.776Z,16.90
2017-09-12T09:57:58.289Z,16.80
2017-09-12T10:00:25.867Z,16.80
2017-09-12T10:02:53.352Z,16.90
2017-09-12T10:05:20.992Z,17.00
2017-09-12T10:07:48.470Z,17.00
2017-09-12T10:10:16.744Z,17.00
2017-09-12T10:12:44.255Z,17.00
2017-09-12T10:15:11.746Z,17.00
2017-09-12T10:17:39.339Z,16.90
2017-09-12T10:20:06.836Z,17.00
2017-09-12T10:22:34.328Z,17.10
2017-09-12T10:25:02.588Z,17.60
2017-09-12T10:27:30.150Z,17.50
2017-09-12T10:29:57.625Z,17.80
2017-09-12T10:32:25.925Z,18.00
2017-09-12T10:34:53.484Z,18.10
2017-09-12T10:37:20.977Z,18.30
2017-09-12T10:39:49.249Z,18.60
2017-09-12T10:42:16.806Z,18.60
2017-09-12T10:44:45.777Z,18.70
2017-09-12T10:47:14.176Z,18.70
2017-09-12T10:49:41.756Z,18.70
2017-09-12T10:52:10.082Z,18.40
2017-09-12T10:54:38.346Z,18.50
2017-09-12T10:57:06.788Z,18.70
2017-09-12T10:59:34.268Z,18.60
2017-09-12T11:02:07.892Z,18.90
2017-09-12T11:04:42.799Z,18.80
2017-09-12T11:07:10.298Z,18.80
2017-09-12T11:09:37.806Z,18.70
2017-09-12T11:12:06.174Z,18.20
2017-09-12T11:14:34.672Z,18.20
2017-09-12T11:17:02.182Z,18.00
2017-09-12T11:19:29.747Z,17.60
2017-09-12T11:21:57.367Z,17.40
2017-09-12T11:24:24.923Z,17.30
2017-09-12T11:26:52.777Z,17.10
2017-09-12T11:29:21.057Z,16.90
2017-09-12T11:31:48.539Z,16.80
2017-09-12T11:34:16.146Z,16.80
2017-09-12T11:36:47.036Z,17.00
2017-09-12T11:39:14.529Z,17.00
2017-09-12T11:41:42.054Z,17.20
2017-09-12T11:44:09.658Z,17.40
2017-09-12T11:46:37.904Z,17.90
2017-09-12T11:49:05.449Z,17.90
2017-09-12T11:51:33.738Z,17.70
2017-09-12T11:54:02.037Z,17.60
2017-09-12T11:56:29.538Z,17.60
2017-09-12T11:58:57.022Z,17.50
2017-09-12T12:01:25.304Z,17.50
2017-09-12T12:03:53.599Z,17.50
2017-09-12T12:06:21.095Z,17.50
2017-09-12T12:08:49.353Z,17.80
2017-09-12T12:11:16.848Z,17.70
2017-09-12T12:13:44.355Z,17.70
2017-09-12T12:16:11.874Z,17.60
2017-09-12T12:18:39.374Z,17.60
2017-09-12T12:21:06.978Z,17.10
2017-09-12T12:23:34.465Z,16.90
2017-09-12T12:26:02.090Z,16.70
2017-09-12T12:28:30.419Z,16.70
2017-09-12T12:30:57.937Z,16.70
2017-09-12T12:33:25.545Z,16.80
2017-09-12T12:35:53.026Z,16.60
2017-09-12T12:38:20.500Z,16.10
2017-09-12T12:40:48.041Z,15.40
2017-09-12T12:43:15.524Z,14.80
2017-09-12T12:45:42.992Z,14.30
2017-09-12T12:48:10.475Z,13.70
2017-09-12T12:50:38.035Z,13.80
2017-09-12T12:53:06.340Z,13.80
2017-09-12T12:55:34.618Z,13.90
2017-09-12T12:58:02.091Z,13.80
2017-09-12T13:00:29.570Z,13.90
2017-09-12T13:02:57.155Z,14.00
2017-09-12T13:05:24.699Z,14.20
2017-09-12T13:07:52.202Z,14.40
2017-09-12T13:10:19.745Z,14.60
2017-09-12T13:12:53.955Z,14.90
2017-09-12T13:15:21.444Z,15.00
2017-09-12T13:17:49.346Z,15.20
2017-09-12T13:20:16.905Z,15.40
2017-09-12T13:22:44.381Z,15.40
2017-09-12T13:25:11.869Z,15.40
2017-09-12T13:27:39.337Z,15.40
2017-09-12T13:30:06.816Z,15.30
2017-09-12T13:32:34.324Z,15.30
2017-09-12T13:35:02.559Z,15.30
2017-09-12T13:37:30.039Z,15.30
2017-09-12T13:39:57.557Z,15.40
2017-09-12T13:42:25.089Z,15.50
2017-09-12T13:44:52.577Z,15.60
2017-09-12T13:47:20.094Z,15.70
2017-09-12T13:49:47.561Z,15.80
2017-09-12T13:52:15.026Z,16.00
2017-09-12T13:54:42.533Z,16.10
2017-09-12T13:57:10.008Z,15.90
2017-09-12T13:59:37.703Z,16.20
2017-09-12T14:02:05.970Z,16.10
2017-09-12T14:04:39.524Z,16.30
2017-09-12T14:07:07.775Z,16.10
2017-09-12T14:09:35.824Z,16.00
2017-09-12T14:12:03.303Z,16.00
2017-09-12T14:14:31.558Z,16.00
2017-09-12T14:16:59.089Z,16.00
2017-09-12T14:19:27.504Z,16.00
2017-09-12T14:21:54.984Z,16.00
2017-09-12T14:24:22.529Z,15.90
2017-09-12T14:26:50.000Z,15.90
2017-09-12T14:29:17.475Z,15.80
2017-09-12T14:31:44.976Z,15.70
2017-09-12T14:34:12.456Z,15.60
2017-09-12T14:36:39.955Z,15.50
2017-09-12T14:39:09.146Z,15.30
2017-09-12T14:41:36.642Z,15.30
2017-09-12T14:44:04.150Z,15.10
2017-09-12T14:46:32.447Z,15.40
2017-09-12T14:49:00.687Z,15.50
2017-09-12T14:54:06.391Z,15.70
2017-09-12T14:56:33.877Z,15.80
2017-09-12T14:59:01.365Z,16.00
2017-09-12T15:01:28.861Z,16.00
2017-09-12T15:04:02.940Z,16.20
2017-09-12T15:06:30.491Z,16.20
2017-09-12T15:08:57.999Z,16.40
2017-09-12T15:11:25.557Z,16.20
2017-09-12T15:13:53.066Z,16.10
2017-09-12T15:16:20.569Z,16.00
2017-09-12T15:18:54.941Z,15.90
2017-09-12T15:21:23.204Z,15.90
2017-09-12T15:23:50.695Z,15.80
2017-09-12T15:26:18.272Z,15.70
2017-09-12T15:28:45.754Z,15.70
2017-09-12T15:31:13.297Z,15.80
2017-09-12T15:33:40.790Z,15.80
2017-09-12T15:36:08.337Z,15.90
2017-09-12T15:38:36.638Z,15.80
2017-09-12T15:41:04.902Z,16.00
2017-09-12T15:43:32.411Z,15.90
2017-09-12T15:45:59.904Z,15.90
2017-09-12T15:48:27.413Z,16.00
2017-09-12T15:50:54.982Z,16.10
2017-09-12T15:53:22.490Z,16.20
2017-09-12T15:55:49.971Z,16.20
2017-09-12T15:58:17.560Z,16.30
2017-09-12T16:00:45.045Z,16.30
2017-09-12T16:03:12.524Z,16.30
2017-09-12T16:05:40.117Z,16.30
2017-09-12T16:08:07.601Z,16.30
2017-09-12T16:10:35.153Z,16.30
2017-09-12T16:13:03.397Z,16.10
2017-09-12T16:15:30.872Z,16.10
2017-09-12T16:17:58.464Z,16.10
2017-09-12T16:20:26.019Z,16.00
2017-09-12T16:22:54.294Z,16.00
2017-09-12T16:25:22.788Z,16.00
2017-09-12T16:27:51.100Z,16.00
2017-09-12T16:30:18.604Z,16.00
2017-09-12T16:32:46.843Z,15.80
2017-09-12T16:35:14.355Z,15.80
2017-09-12T16:37:41.836Z,15.70
2017-09-12T16:40:09.319Z,15.60
2017-09-12T16:42:36.840Z,15.50
2017-09-12T16:45:04.413Z,15.70
2017-09-12T16:47:31.996Z,15.30
2017-09-12T16:49:59.552Z,15.30
2017-09-12T16:52:27.045Z,15.30
2017-09-12T16:54:54.610Z,15.20
2017-09-12T16:57:22.430Z,15.20
2017-09-12T16:59:49.951Z,15.20
2017-09-12T17:02:18.196Z,15.10
2017-09-12T17:04:45.703Z,15.10
2017-09-12T17:07:13.326Z,15.00
2017-09-12T17:09:41.602Z,14.90
2017-09-12T17:12:09.084Z,14.90
2017-09-12T17:14:36.586Z,14.90
2017-09-12T17:17:05.021Z,14.80
2017-09-12T17:19:32.516Z,14.80
2017-09-12T17:21:59.991Z,14.80
2017-09-12T17:24:27.509Z,14.70
2017-09-12T17:26:55.027Z,14.80
2017-09-12T17:29:22.627Z,14.70
2017-09-12T17:31:50.919Z,14.70
2017-09-12T17:34:19.167Z,14.60
2017-09-12T17:36:47.425Z,14.60
2017-09-12T17:39:15.722Z,14.60
2017-09-12T17:41:43.233Z,14.60
2017-09-12T17:44:10.721Z,14.60
2017-09-12T17:46:38.228Z,14.60
2017-09-12T17:49:05.729Z,14.60
2017-09-12T17:51:33.286Z,14.60
2017-09-12T17:54:00.893Z,14.60
2017-09-12T17:56:31.364Z,14.60
2017-09-12T17:58:58.851Z,14.50
2017-09-12T18:01:26.338Z,14.50
2017-09-12T18:03:53.871Z,14.50
2017-09-12T18:06:21.487Z,14.40
2017-09-12T18:08:48.989Z,14.40
2017-09-12T18:11:16.569Z,14.40
2017-09-12T18:13:44.084Z,14.30
2017-09-12T18:16:11.590Z,14.30
2017-09-12T18:18:39.191Z,14.20
2017-09-12T18:21:07.152Z,14.20
2017-09-12T18:23:35.414Z,14.10
2017-09-12T18:26:03.862Z,14.00
2017-09-12T18:28:31.408Z,14.00
2017-09-12T18:30:58.914Z,14.00
2017-09-12T18:33:26.458Z,13.90
2017-09-12T18:35:54.044Z,13.80
2017-09-12T18:38:21.522Z,13.80
2017-09-12T18:40:48.974Z,13.70
2017-09-12T18:43:16.879Z,13.60
2017-09-12T18:45:44.432Z,13.60
2017-09-12T18:48:12.706Z,13.60
2017-09-12T18:50:40.286Z,13.60
2017-09-12T18:53:07.765Z,13.60
2017-09-12T18:55:35.420Z,13.60
2017-09-12T18:58:02.890Z,13.60
2017-09-12T19:00:30.399Z,13.60
2017-09-12T19:02:57.884Z,13.60
2017-09-12T19:05:25.407Z,13.60
2017-09-12T19:07:53.768Z,13.70
2017-09-12T19:10:21.247Z,13.70
2017-09-12T19:12:48.749Z,13.80
2017-09-12T19:15:16.243Z,13.80
2017-09-12T19:17:43.746Z,13.80
2017-09-12T19:20:12.028Z,13.80
2017-09-12T19:22:40.335Z,13.80
2017-09-12T19:25:07.800Z,13.80
2017-09-12T19:27:35.299Z,13.80
2017-09-12T19:30:02.773Z,13.80
2017-09-12T19:32:30.239Z,13.80
2017-09-12T19:34:57.748Z,13.70
2017-09-12T19:37:25.236Z,13.70
2017-09-12T19:39:52.800Z,13.70
2017-09-12T19:42:20.320Z,13.70
2017-09-12T19:44:48.568Z,13.70
2017-09-12T19:47:16.100Z,13.70
2017-09-12T19:49:44.388Z,13.80
2017-09-12T19:52:11.892Z,13.80
2017-09-12T19:54:40.124Z,13.80
2017-09-12T19:57:07.629Z,13.80
2017-09-12T19:59:35.314Z,13.80
2017-09-12T20:02:02.795Z,13.80
2017-09-12T20:04:30.305Z,13.90
2017-09-12T20:06:58.552Z,13.90
2017-09-12T20:09:26.813Z,14.00
2017-09-12T20:11:55.059Z,14.00
2017-09-12T20:14:22.553Z,13.90
2017-09-12T20:16:50.012Z,14.00
2017-09-12T20:19:17.563Z,14.00
2017-09-12T20:21:45.798Z,14.00
2017-09-12T20:24:13.281Z,14.00
2017-09-12T20:26:40.780Z,14.00
2017-09-12T20:29:08.274Z,14.00
2017-09-12T20:31:35.828Z,14.00
2017-09-12T20:34:03.679Z,14.00
2017-09-12T20:36:31.164Z,13.90
2017-09-12T20:38:59.398Z,14.00
2017-09-12T20:41:26.912Z,14.00
2017-09-12T20:43:54.395Z,13.90
2017-09-12T20:46:21.866Z,14.00
2017-09-12T20:48:49.424Z,14.00
2017-09-12T20:51:16.891Z,13.90
2017-09-12T20:53:45.114Z,13.90
2017-09-12T20:56:12.608Z,13.90
2017-09-12T20:58:40.068Z,13.90
2017-09-12T21:01:07.525Z,13.80
2017-09-12T21:03:35.798Z,13.80
2017-09-12T21:06:03.245Z,13.70
2017-09-12T21:08:30.722Z,13.70
2017-09-12T21:10:58.309Z,13.70
2017-09-12T21:13:26.553Z,13.70
2017-09-12T21:15:54.117Z,13.60
2017-09-12T21:18:21.794Z,13.70
2017-09-12T21:20:49.262Z,13.70
2017-09-12T21:23:16.841Z,13.70
2017-09-12T21:25:44.341Z,13.60
2017-09-12T21:28:11.815Z,13.60
2017-09-12T21:30:39.323Z,13.60
2017-09-12T21:33:06.853Z,13.50
2017-09-12T21:35:35.078Z,13.60
2017-09-12T21:38:02.543Z,13.60
2017-09-12T21:40:30.897Z,13.60
2017-09-12T21:43:00.091Z,13.60
2017-09-12T21:45:27.568Z,13.60
2017-09-12T21:47:55.082Z,13.60
2017-09-12T21:50:22.553Z,13.60
2017-09-12T21:52:50.019Z,13.60
2017-09-12T21:55:17.575Z,13.60
2017-09-12T21:57:45.026Z,13.60
2017-09-12T22:00:12.519Z,13.60
2017-09-12T22:02:39.989Z,13.60
2017-09-12T22:05:07.469Z,13.50
2017-09-12T22:07:34.967Z,13.50
2017-09-12T22:10:02.653Z,13.50
2017-09-12T22:12:30.189Z,13.50
2017-09-12T22:14:57.649Z,13.40
2017-09-12T22:17:25.336Z,13.40
2017-09-12T22:19:52.826Z,13.40
2017-09-12T22:22:20.291Z,13.40
2017-09-12T22:24:47.787Z,13.40
2017-09-12T22:27:15.255Z,13.40
2017-09-12T22:29:42.701Z,13.50
2017-09-12T22:32:10.345Z,13.50
2017-09-12T22:34:37.893Z,13.50
2017-09-12T22:37:05.375Z,13.60
2017-09-12T22:39:32.897Z,13.60
2017-09-12T22:42:00.362Z,13.60
2017-09-12T22:44:27.847Z,13.50
2017-09-12T22:46:55.326Z,13.60
2017-09-12T22:49:22.783Z,13.50
2017-09-12T22:51:51.021Z,13.50
2017-09-12T22:54:18.540Z,13.50
2017-09-12T22:56:46.006Z,13.40
2017-09-12T22:59:14.855Z,13.40
2017-09-12T23:01:42.444Z,13.40
2017-09-12T23:04:09.907Z,13.40
2017-09-12T23:06:37.366Z,13.50
2017-09-12T23:09:05.612Z,13.50
2017-09-12T23:11:33.079Z,13.50
2017-09-12T23:14:00.531Z,13.50
2017-09-12T23:16:28.783Z,13.40
2017-09-12T23:18:56.248Z,13.40
2017-09-12T23:21:24.479Z,13.30
2017-09-12T23:23:51.999Z,13.30
2017-09-12T23:26:20.231Z,13.20
2017-09-12T23:28:48.458Z,13.20
2017-09-12T23:31:15.930Z,13.20
2017-09-12T23:33:44.250Z,13.20
2017-09-12T23:36:11.722Z,13.30
2017-09-12T23:38:39.190Z,13.30
2017-09-12T23:41:06.650Z,13.40
2017-09-12T23:43:34.223Z,13.40
2017-09-12T23:46:02.462Z,13.40
2017-09-12T23:48:29.991Z,13.30
2017-09-12T23:50:57.455Z,13.30
2017-09-12T23:53:25.002Z,13.30
2017-09-12T23:55:52.464Z,13.20
2017-09-12T23:58:19.955Z,13.20
